sensor_id;sensor_type;location;lat;lon;timestamp;pressure;altitude;pressure_sealevel;temperature;humidity
56681;BME280;42558;52.388;13.390;2023-05-12T00:01:00;101271.84;;;14.31;60.19
56681;BME280;42558;52.388;13.390;2023-05-12T00:03:30;101268.13;;;14.30;60.56
56681;BME280;42558;52.388;13.390;2023-05-12T00:06:00;101264.00;;;14.22;60.29
56681;BME280;42558;52.388;13.390;2023-05-12T00:08:30;101264.14;;;14.17;60.44
56681;BME280;42558;52.388;13.390;2023-05-12T00:11:00;101263.76;;;14.13;60.86
56681;BME280;42558;52.388;13.390;2023-05-12T00:13:30;101257.54;;;14.10;60.58
56681;BME280;42558;52.388;13.390;2023-05-12T00:15:58;101257.54;;;14.07;60.58
56681;BME280;42558;52.388;13.390;2023-05-12T00:18:27;101257.86;;;14.02;60.60
56681;BME280;42558;52.388;13.390;2023-05-12T00:20:56;101261.55;;;14.00;60.75
56681;BME280;42558;52.388;13.390;2023-05-12T00:23:25;101259.98;;;14.03;59.90
56681;BME280;42558;52.388;13.390;2023-05-12T00:25:55;101259.77;;;14.00;60.64
56681;BME280;42558;52.388;13.390;2023-05-12T00:28:25;101259.20;;;13.94;59.98
56681;BME280;42558;52.388;13.390;2023-05-12T00:30:56;101258.71;;;13.99;59.69
56681;BME280;42558;52.388;13.390;2023-05-12T00:33:29;101257.23;;;13.91;60.44
56681;BME280;42558;52.388;13.390;2023-05-12T00:35:58;101258.92;;;13.81;60.83
56681;BME280;42558;52.388;13.390;2023-05-12T00:38:31;101267.38;;;13.77;60.66
56681;BME280;42558;52.388;13.390;2023-05-12T00:41:01;101264.64;;;13.69;61.38
56681;BME280;42558;52.388;13.390;2023-05-12T00:43:31;101265.95;;;13.58;61.93
56681;BME280;42558;52.388;13.390;2023-05-12T00:46:03;101269.11;;;13.55;62.00
56681;BME280;42558;52.388;13.390;2023-05-12T00:48:35;101265.52;;;13.49;61.55
56681;BME280;42558;52.388;13.390;2023-05-12T00:51:04;101263.86;;;13.41;61.65
56681;BME280;42558;52.388;13.390;2023-05-12T00:53:35;101266.70;;;13.45;61.96
56681;BME280;42558;52.388;13.390;2023-05-12T00:56:18;101266.81;;;13.37;62.20
56681;BME280;42558;52.388;13.390;2023-05-12T00:58:46;101267.66;;;13.33;62.67
56681;BME280;42558;52.388;13.390;2023-05-12T01:01:15;101268.52;;;13.30;62.77
56681;BME280;42558;52.388;13.390;2023-05-12T01:03:44;101262.46;;;13.25;62.55
56681;BME280;42558;52.388;13.390;2023-05-12T01:09:09;101263.76;;;13.18;63.33
56681;BME280;42558;52.388;13.390;2023-05-12T01:11:39;101264.93;;;13.12;63.60
56681;BME280;42558;52.388;13.390;2023-05-12T01:14:08;101270.94;;;13.14;63.73
56681;BME280;42558;52.388;13.390;2023-05-12T01:16:46;101270.77;;;13.14;63.46
56681;BME280;42558;52.388;13.390;2023-05-12T01:19:45;101270.77;;;13.14;63.64
56681;BME280;42558;52.388;13.390;2023-05-12T01:22:16;101272.89;;;13.14;63.24
56681;BME280;42558;52.388;13.390;2023-05-12T01:25:00;101273.41;;;13.15;63.23
56681;BME280;42558;52.388;13.390;2023-05-12T01:27:32;101272.71;;;13.14;63.32
56681;BME280;42558;52.388;13.390;2023-05-12T01:30:03;101277.85;;;13.16;63.17
56681;BME280;42558;52.388;13.390;2023-05-12T01:32:34;101282.75;;;13.23;62.26
56681;BME280;42558;52.388;13.390;2023-05-12T01:35:02;101283.10;;;13.23;62.47
56681;BME280;42558;52.388;13.390;2023-05-12T01:37:30;101282.18;;;13.21;62.26
56681;BME280;42558;52.388;13.390;2023-05-12T01:39:59;101280.92;;;13.20;62.83
56681;BME280;42558;52.388;13.390;2023-05-12T01:42:27;101280.73;;;13.19;62.59
56681;BME280;42558;52.388;13.390;2023-05-12T01:44:56;101279.34;;;13.21;62.07
56681;BME280;42558;52.388;13.390;2023-05-12T01:47:24;101281.84;;;13.22;62.34
56681;BME280;42558;52.388;13.390;2023-05-12T01:49:52;101283.69;;;13.17;63.04
56681;BME280;42558;52.388;13.390;2023-05-12T01:52:21;101286.33;;;13.16;62.01
56681;BME280;42558;52.388;13.390;2023-05-12T01:54:50;101283.95;;;13.22;61.95
56681;BME280;42558;52.388;13.390;2023-05-12T01:57:18;101284.48;;;13.22;61.55
56681;BME280;42558;52.388;13.390;2023-05-12T01:59:46;101286.07;;;13.23;61.38
56681;BME280;42558;52.388;13.390;2023-05-12T02:02:14;101282.91;;;13.23;61.97
56681;BME280;42558;52.388;13.390;2023-05-12T02:04:43;101284.79;;;13.19;62.28
56681;BME280;42558;52.388;13.390;2023-05-12T02:07:11;101285.78;;;13.15;62.18
56681;BME280;42558;52.388;13.390;2023-05-12T02:09:40;101286.48;;;13.15;62.03
56681;BME280;42558;52.388;13.390;2023-05-12T02:12:10;101288.44;;;13.15;62.00
56681;BME280;42558;52.388;13.390;2023-05-12T02:14:42;101291.23;;;13.13;62.27
56681;BME280;42558;52.388;13.390;2023-05-12T02:17:12;101293.48;;;13.09;61.78
56681;BME280;42558;52.388;13.390;2023-05-12T02:19:42;101296.10;;;13.06;62.84
56681;BME280;42558;52.388;13.390;2023-05-12T02:22:11;101296.39;;;13.01;62.76
56681;BME280;42558;52.388;13.390;2023-05-12T02:24:41;101301.08;;;12.95;63.80
56681;BME280;42558;52.388;13.390;2023-05-12T02:27:11;101299.94;;;12.89;63.23
56681;BME280;42558;52.388;13.390;2023-05-12T02:29:41;101304.45;;;12.83;63.45
56681;BME280;42558;52.388;13.390;2023-05-12T02:32:11;101307.08;;;12.80;63.75
56681;BME280;42558;52.388;13.390;2023-05-12T02:34:41;101315.52;;;12.78;63.89
56681;BME280;42558;52.388;13.390;2023-05-12T02:37:11;101317.59;;;12.76;63.91
56681;BME280;42558;52.388;13.390;2023-05-12T02:39:40;101317.20;;;12.72;64.06
56681;BME280;42558;52.388;13.390;2023-05-12T02:42:13;101315.38;;;12.68;64.23
56681;BME280;42558;52.388;13.390;2023-05-12T02:44:47;101318.33;;;12.65;64.39
56681;BME280;42558;52.388;13.390;2023-05-12T02:47:17;101317.86;;;12.58;64.69
56681;BME280;42558;52.388;13.390;2023-05-12T02:49:46;101314.81;;;12.54;65.27
56681;BME280;42558;52.388;13.390;2023-05-12T02:52:16;101317.48;;;12.43;65.86
56681;BME280;42558;52.388;13.390;2023-05-12T02:54:46;101316.87;;;12.37;65.80
56681;BME280;42558;52.388;13.390;2023-05-12T02:57:16;101314.69;;;12.34;65.81
56681;BME280;42558;52.388;13.390;2023-05-12T02:59:46;101311.70;;;12.22;66.78
56681;BME280;42558;52.388;13.390;2023-05-12T03:02:16;101310.73;;;12.16;66.23
56681;BME280;42558;52.388;13.390;2023-05-12T03:04:46;101312.23;;;12.11;66.41
56681;BME280;42558;52.388;13.390;2023-05-12T03:07:16;101309.83;;;12.05;66.91
56681;BME280;42558;52.388;13.390;2023-05-12T03:09:47;101310.57;;;11.96;66.95
56681;BME280;42558;52.388;13.390;2023-05-12T03:12:17;101311.87;;;11.90;67.11
56681;BME280;42558;52.388;13.390;2023-05-12T03:14:45;101312.98;;;11.83;67.58
56681;BME280;42558;52.388;13.390;2023-05-12T03:17:13;101316.24;;;11.79;67.63
56681;BME280;42558;52.388;13.390;2023-05-12T03:19:42;101313.95;;;11.69;68.11
56681;BME280;42558;52.388;13.390;2023-05-12T03:22:10;101318.04;;;11.63;68.36
56681;BME280;42558;52.388;13.390;2023-05-12T03:24:39;101320.61;;;11.58;68.71
56681;BME280;42558;52.388;13.390;2023-05-12T03:27:07;101319.08;;;11.51;68.99
56681;BME280;42558;52.388;13.390;2023-05-12T03:29:36;101321.79;;;11.45;69.09
56681;BME280;42558;52.388;13.390;2023-05-12T03:32:05;101329.80;;;11.41;69.08
56681;BME280;42558;52.388;13.390;2023-05-12T03:34:33;101327.54;;;11.34;69.79
56681;BME280;42558;52.388;13.390;2023-05-12T03:37:01;101330.59;;;11.28;69.76
56681;BME280;42558;52.388;13.390;2023-05-12T03:39:30;101332.31;;;11.26;70.05
56681;BME280;42558;52.388;13.390;2023-05-12T03:41:58;101331.17;;;11.22;70.30
56681;BME280;42558;52.388;13.390;2023-05-12T03:44:27;101334.84;;;11.20;70.24
56681;BME280;42558;52.388;13.390;2023-05-12T03:46:55;101333.23;;;11.18;70.81
56681;BME280;42558;52.388;13.390;2023-05-12T03:49:23;101335.94;;;11.13;71.03
56681;BME280;42558;52.388;13.390;2023-05-12T03:51:52;101336.23;;;11.10;70.67
56681;BME280;42558;52.388;13.390;2023-05-12T03:54:20;101335.68;;;11.10;70.72
56681;BME280;42558;52.388;13.390;2023-05-12T03:56:52;101340.01;;;11.06;71.01
56681;BME280;42558;52.388;13.390;2023-05-12T03:59:20;101339.55;;;11.01;71.31
56681;BME280;42558;52.388;13.390;2023-05-12T04:01:49;101339.61;;;10.96;71.58
56681;BME280;42558;52.388;13.390;2023-05-12T04:04:18;101342.84;;;10.99;71.36
56681;BME280;42558;52.388;13.390;2023-05-12T04:06:45;101338.46;;;10.99;71.52
56681;BME280;42558;52.388;13.390;2023-05-12T04:09:14;101343.17;;;10.97;71.36
56681;BME280;42558;52.388;13.390;2023-05-12T04:11:46;101340.70;;;10.97;71.56
56681;BME280;42558;52.388;13.390;2023-05-12T04:14:16;101347.06;;;10.98;71.59
56681;BME280;42558;52.388;13.390;2023-05-12T04:16:46;101350.08;;;10.99;71.56
56681;BME280;42558;52.388;13.390;2023-05-12T04:19:17;101353.43;;;11.01;71.16
56681;BME280;42558;52.388;13.390;2023-05-12T04:21:46;101354.19;;;11.03;71.42
56681;BME280;42558;52.388;13.390;2023-05-12T04:24:16;101353.67;;;11.03;71.63
56681;BME280;42558;52.388;13.390;2023-05-12T04:26:46;101355.36;;;11.00;71.82
56681;BME280;42558;52.388;13.390;2023-05-12T04:29:16;101355.03;;;11.01;71.97
56681;BME280;42558;52.388;13.390;2023-05-12T04:31:46;101357.50;;;11.02;71.83
56681;BME280;42558;52.388;13.390;2023-05-12T04:34:16;101360.67;;;11.02;71.99
56681;BME280;42558;52.388;13.390;2023-05-12T04:36:46;101359.30;;;11.03;71.99
56681;BME280;42558;52.388;13.390;2023-05-12T04:39:16;101358.16;;;11.07;71.76
56681;BME280;42558;52.388;13.390;2023-05-12T04:41:46;101358.65;;;11.14;71.66
56681;BME280;42558;52.388;13.390;2023-05-12T04:44:16;101364.16;;;11.16;71.60
56681;BME280;42558;52.388;13.390;2023-05-12T04:46:46;101362.63;;;11.19;71.89
56681;BME280;42558;52.388;13.390;2023-05-12T04:49:16;101361.70;;;11.25;71.92
56681;BME280;42558;52.388;13.390;2023-05-12T04:51:46;101361.59;;;11.29;71.51
56681;BME280;42558;52.388;13.390;2023-05-12T04:54:16;101367.63;;;11.30;71.37
56681;BME280;42558;52.388;13.390;2023-05-12T04:56:46;101370.52;;;11.35;71.32
56681;BME280;42558;52.388;13.390;2023-05-12T04:59:16;101371.41;;;11.36;71.59
56681;BME280;42558;52.388;13.390;2023-05-12T05:01:46;101373.69;;;11.43;71.51
56681;BME280;42558;52.388;13.390;2023-05-12T05:04:16;101373.98;;;11.50;69.46
56681;BME280;42558;52.388;13.390;2023-05-12T05:06:46;101377.80;;;11.65;69.96
56681;BME280;42558;52.388;13.390;2023-05-12T05:09:16;101377.29;;;11.74;69.59
56681;BME280;42558;52.388;13.390;2023-05-12T05:11:46;101378.48;;;11.90;69.97
56681;BME280;42558;52.388;13.390;2023-05-12T05:14:16;101381.55;;;11.95;68.00
56681;BME280;42558;52.388;13.390;2023-05-12T05:16:47;101384.42;;;11.97;67.53
56681;BME280;42558;52.388;13.390;2023-05-12T05:19:17;101384.19;;;12.04;67.48
56681;BME280;42558;52.388;13.390;2023-05-12T05:21:58;101385.05;;;12.13;67.74
56681;BME280;42558;52.388;13.390;2023-05-12T05:24:28;101383.34;;;12.27;66.72
56681;BME280;42558;52.388;13.390;2023-05-12T05:26:58;101385.80;;;12.47;65.79
56681;BME280;42558;52.388;13.390;2023-05-12T05:29:28;101387.44;;;12.62;65.15
56681;BME280;42558;52.388;13.390;2023-05-12T05:31:58;101385.15;;;12.87;65.71
56681;BME280;42558;52.388;13.390;2023-05-12T05:34:28;101389.38;;;13.11;64.60
56681;BME280;42558;52.388;13.390;2023-05-12T05:36:58;101389.14;;;13.06;64.19
56681;BME280;42558;52.388;13.390;2023-05-12T05:39:27;101391.19;;;13.15;63.32
56681;BME280;42558;52.388;13.390;2023-05-12T05:41:59;101387.33;;;13.27;62.67
56681;BME280;42558;52.388;13.390;2023-05-12T05:44:29;101385.81;;;13.48;62.19
56681;BME280;42558;52.388;13.390;2023-05-12T05:46:59;101387.21;;;13.63;61.73
56681;BME280;42558;52.388;13.390;2023-05-12T05:49:29;101391.09;;;13.78;61.84
56681;BME280;42558;52.388;13.390;2023-05-12T05:51:59;101389.75;;;14.03;60.50
56681;BME280;42558;52.388;13.390;2023-05-12T05:54:29;101390.72;;;14.13;59.76
56681;BME280;42558;52.388;13.390;2023-05-12T05:56:59;101393.53;;;14.30;58.66
56681;BME280;42558;52.388;13.390;2023-05-12T05:59:28;101397.20;;;14.26;58.54
56681;BME280;42558;52.388;13.390;2023-05-12T06:01:56;101396.36;;;14.50;59.42
56681;BME280;42558;52.388;13.390;2023-05-12T06:04:24;101394.45;;;14.76;58.34
56681;BME280;42558;52.388;13.390;2023-05-12T06:06:53;101395.46;;;14.72;56.86
56681;BME280;42558;52.388;13.390;2023-05-12T06:09:21;101394.28;;;14.55;57.13
56681;BME280;42558;52.388;13.390;2023-05-12T06:11:50;101394.83;;;14.81;56.78
56681;BME280;42558;52.388;13.390;2023-05-12T06:14:18;101398.30;;;14.99;56.22
56681;BME280;42558;52.388;13.390;2023-05-12T06:16:47;101395.83;;;15.33;56.24
56681;BME280;42558;52.388;13.390;2023-05-12T06:19:15;101396.33;;;15.69;55.74
56681;BME280;42558;52.388;13.390;2023-05-12T06:21:43;101393.86;;;15.80;55.14
56681;BME280;42558;52.388;13.390;2023-05-12T06:24:12;101399.05;;;15.95;54.13
56681;BME280;42558;52.388;13.390;2023-05-12T06:26:40;101403.43;;;15.76;53.71
56681;BME280;42558;52.388;13.390;2023-05-12T06:29:09;101403.82;;;15.84;53.65
56681;BME280;42558;52.388;13.390;2023-05-12T06:31:37;101407.38;;;16.02;54.45
56681;BME280;42558;52.388;13.390;2023-05-12T06:34:05;101407.42;;;16.27;52.73
56681;BME280;42558;52.388;13.390;2023-05-12T06:36:34;101408.27;;;16.00;52.55
56681;BME280;42558;52.388;13.390;2023-05-12T06:39:03;101408.14;;;16.37;52.72
56681;BME280;42558;52.388;13.390;2023-05-12T06:41:31;101407.22;;;16.94;52.61
56681;BME280;42558;52.388;13.390;2023-05-12T06:43:59;101408.48;;;16.90;51.67
56681;BME280;42558;52.388;13.390;2023-05-12T06:46:28;101404.59;;;16.77;51.38
56681;BME280;42558;52.388;13.390;2023-05-12T06:48:56;101402.92;;;17.57;52.44
56681;BME280;42558;52.388;13.390;2023-05-12T06:51:25;101400.10;;;17.51;49.87
56681;BME280;42558;52.388;13.390;2023-05-12T06:53:54;101403.08;;;17.61;50.44
56681;BME280;42558;52.388;13.390;2023-05-12T06:56:21;101399.99;;;17.73;49.89
56681;BME280;42558;52.388;13.390;2023-05-12T06:58:50;101399.07;;;17.84;48.65
56681;BME280;42558;52.388;13.390;2023-05-12T07:01:18;101400.42;;;17.93;49.86
56681;BME280;42558;52.388;13.390;2023-05-12T07:03:46;101397.38;;;18.22;47.67
56681;BME280;42558;52.388;13.390;2023-05-12T07:06:15;101395.66;;;17.86;47.99
56681;BME280;42558;52.388;13.390;2023-05-12T07:08:43;101398.09;;;18.22;48.88
56681;BME280;42558;52.388;13.390;2023-05-12T07:11:12;101402.67;;;17.70;48.70
56681;BME280;42558;52.388;13.390;2023-05-12T07:13:40;101401.06;;;18.29;49.67
56681;BME280;42558;52.388;13.390;2023-05-12T07:16:09;101398.33;;;18.39;47.14
56681;BME280;42558;52.388;13.390;2023-05-12T07:18:37;101397.53;;;18.26;47.39
56681;BME280;42558;52.388;13.390;2023-05-12T07:21:06;101398.42;;;18.67;46.72
56681;BME280;42558;52.388;13.390;2023-05-12T07:23:36;101399.25;;;18.75;47.53
56681;BME280;42558;52.388;13.390;2023-05-12T07:26:06;101396.89;;;19.14;46.98
56681;BME280;42558;52.388;13.390;2023-05-12T07:28:34;101396.70;;;19.15;45.54
56681;BME280;42558;52.388;13.390;2023-05-12T07:31:07;101395.42;;;19.47;46.08
56681;BME280;42558;52.388;13.390;2023-05-12T07:33:36;101395.58;;;19.48;44.86
56681;BME280;42558;52.388;13.390;2023-05-12T07:36:07;101397.10;;;18.78;44.80
56681;BME280;42558;52.388;13.390;2023-05-12T07:38:37;101395.50;;;18.91;46.67
56681;BME280;42558;52.388;13.390;2023-05-12T07:41:07;101392.77;;;19.44;44.01
56681;BME280;42558;52.388;13.390;2023-05-12T07:43:37;101396.20;;;19.56;43.97
56681;BME280;42558;52.388;13.390;2023-05-12T07:46:07;101392.33;;;19.51;45.53
56681;BME280;42558;52.388;13.390;2023-05-12T07:48:37;101395.91;;;19.91;44.48
56681;BME280;42558;52.388;13.390;2023-05-12T07:51:09;101396.67;;;20.22;43.76
56681;BME280;42558;52.388;13.390;2023-05-12T07:53:38;101393.48;;;20.43;43.54
56681;BME280;42558;52.388;13.390;2023-05-12T07:56:08;101394.85;;;20.24;42.18
56681;BME280;42558;52.388;13.390;2023-05-12T07:58:38;101395.21;;;20.01;42.82
56681;BME280;42558;52.388;13.390;2023-05-12T08:01:08;101393.66;;;20.44;41.67
56681;BME280;42558;52.388;13.390;2023-05-12T08:03:38;101393.64;;;20.22;40.55
56681;BME280;42558;52.388;13.390;2023-05-12T08:06:08;101394.15;;;20.45;41.42
56681;BME280;42558;52.388;13.390;2023-05-12T08:08:39;101389.15;;;21.23;40.39
56681;BME280;42558;52.388;13.390;2023-05-12T08:11:09;101392.29;;;20.50;39.58
56681;BME280;42558;52.388;13.390;2023-05-12T08:13:39;101387.02;;;20.12;40.37
56681;BME280;42558;52.388;13.390;2023-05-12T08:16:09;101393.13;;;20.54;40.88
56681;BME280;42558;52.388;13.390;2023-05-12T08:18:39;101389.11;;;20.97;39.56
56681;BME280;42558;52.388;13.390;2023-05-12T08:21:09;101387.52;;;20.46;40.05
56681;BME280;42558;52.388;13.390;2023-05-12T08:23:39;101384.02;;;21.02;39.89
56681;BME280;42558;52.388;13.390;2023-05-12T08:26:09;101386.25;;;21.07;39.08
56681;BME280;42558;52.388;13.390;2023-05-12T08:28:39;101376.54;;;21.62;37.53
56681;BME280;42558;52.388;13.390;2023-05-12T08:31:09;101381.70;;;21.64;37.92
56681;BME280;42558;52.388;13.390;2023-05-12T08:33:39;101377.56;;;21.87;36.11
56681;BME280;42558;52.388;13.390;2023-05-12T08:36:08;101376.53;;;21.54;34.89
56681;BME280;42558;52.388;13.390;2023-05-12T08:38:39;101383.06;;;21.06;35.11
56681;BME280;42558;52.388;13.390;2023-05-12T08:41:24;101381.23;;;21.16;35.86
56681;BME280;42558;52.388;13.390;2023-05-12T08:43:59;101375.37;;;21.25;35.26
56681;BME280;42558;52.388;13.390;2023-05-12T08:46:33;101375.80;;;21.12;36.33
56681;BME280;42558;52.388;13.390;2023-05-12T08:49:03;101378.46;;;21.48;35.36
56681;BME280;42558;52.388;13.390;2023-05-12T08:51:32;101381.83;;;21.40;34.54
56681;BME280;42558;52.388;13.390;2023-05-12T08:54:07;101374.88;;;21.39;34.63
56681;BME280;42558;52.388;13.390;2023-05-12T08:56:41;101376.83;;;21.48;33.28
56681;BME280;42558;52.388;13.390;2023-05-12T08:59:12;101376.02;;;21.60;33.85
56681;BME280;42558;52.388;13.390;2023-05-12T09:01:41;101373.21;;;22.27;33.39
56681;BME280;42558;52.388;13.390;2023-05-12T09:04:10;101370.45;;;21.93;32.25
56681;BME280;42558;52.388;13.390;2023-05-12T09:06:42;101369.98;;;21.25;32.80
56681;BME280;42558;52.388;13.390;2023-05-12T09:09:13;101372.48;;;21.43;33.62
56681;BME280;42558;52.388;13.390;2023-05-12T09:11:44;101365.27;;;21.93;32.40
56681;BME280;42558;52.388;13.390;2023-05-12T09:14:24;101366.77;;;21.50;31.95
56681;BME280;42558;52.388;13.390;2023-05-12T09:17:02;101366.22;;;21.75;31.98
56681;BME280;42558;52.388;13.390;2023-05-12T09:19:33;101368.09;;;22.26;30.46
56681;BME280;42558;52.388;13.390;2023-05-12T09:22:03;101367.27;;;21.60;28.91
56681;BME280;42558;52.388;13.390;2023-05-12T09:24:38;101370.45;;;21.61;29.21
56681;BME280;42558;52.388;13.390;2023-05-12T09:27:09;101365.83;;;21.00;29.92
56681;BME280;42558;52.388;13.390;2023-05-12T09:29:48;101368.04;;;21.33;29.28
56681;BME280;42558;52.388;13.390;2023-05-12T09:32:33;101370.35;;;21.24;30.88
56681;BME280;42558;52.388;13.390;2023-05-12T09:35:06;101365.86;;;21.83;31.63
56681;BME280;42558;52.388;13.390;2023-05-12T09:37:38;101365.73;;;21.50;31.11
56681;BME280;42558;52.388;13.390;2023-05-12T09:40:09;101355.81;;;21.44;30.72
56681;BME280;42558;52.388;13.390;2023-05-12T09:42:41;101359.95;;;21.60;31.69
56681;BME280;42558;52.388;13.390;2023-05-12T09:45:13;101354.53;;;21.69;33.62
56681;BME280;42558;52.388;13.390;2023-05-12T09:47:43;101350.58;;;22.01;31.04
56681;BME280;42558;52.388;13.390;2023-05-12T09:50:13;101357.14;;;22.04;31.92
56681;BME280;42558;52.388;13.390;2023-05-12T09:52:43;101357.92;;;22.00;32.12
56681;BME280;42558;52.388;13.390;2023-05-12T09:55:13;101361.11;;;22.17;31.19
56681;BME280;42558;52.388;13.390;2023-05-12T09:57:44;101358.44;;;21.71;31.23
56681;BME280;42558;52.388;13.390;2023-05-12T10:00:15;101364.33;;;21.47;31.26
56681;BME280;42558;52.388;13.390;2023-05-12T10:03:12;101358.08;;;21.71;31.83
56681;BME280;42558;52.388;13.390;2023-05-12T10:05:56;101356.52;;;22.49;31.45
56681;BME280;42558;52.388;13.390;2023-05-12T10:08:33;101350.11;;;22.21;31.21
56681;BME280;42558;52.388;13.390;2023-05-12T10:11:06;101353.08;;;21.86;32.04
56681;BME280;42558;52.388;13.390;2023-05-12T10:13:38;101349.27;;;21.88;32.77
56681;BME280;42558;52.388;13.390;2023-05-12T10:16:09;101343.97;;;21.93;32.27
56681;BME280;42558;52.388;13.390;2023-05-12T10:18:37;101347.71;;;21.47;34.16
56681;BME280;42558;52.388;13.390;2023-05-12T10:21:08;101350.98;;;22.21;33.81
56681;BME280;42558;52.388;13.390;2023-05-12T10:23:39;101348.88;;;22.33;33.41
56681;BME280;42558;52.388;13.390;2023-05-12T10:26:13;101347.02;;;22.22;33.67
56681;BME280;42558;52.388;13.390;2023-05-12T10:28:44;101343.83;;;21.99;33.50
56681;BME280;42558;52.388;13.390;2023-05-12T10:31:14;101340.63;;;21.90;33.88
56681;BME280;42558;52.388;13.390;2023-05-12T10:34:02;101339.30;;;21.62;34.76
56681;BME280;42558;52.388;13.390;2023-05-12T10:36:30;101343.20;;;22.38;34.23
56681;BME280;42558;52.388;13.390;2023-05-12T10:39:04;101337.31;;;22.02;33.94
56681;BME280;42558;52.388;13.390;2023-05-12T10:41:34;101340.67;;;22.02;34.32
56681;BME280;42558;52.388;13.390;2023-05-12T10:44:04;101341.15;;;21.68;34.48
56681;BME280;42558;52.388;13.390;2023-05-12T10:46:35;101339.89;;;22.13;35.42
56681;BME280;42558;52.388;13.390;2023-05-12T10:49:09;101337.59;;;22.82;34.19
56681;BME280;42558;52.388;13.390;2023-05-12T10:54:23;101334.83;;;21.70;34.62
56681;BME280;42558;52.388;13.390;2023-05-12T10:56:58;101332.48;;;22.16;34.52
56681;BME280;42558;52.388;13.390;2023-05-12T10:59:29;101331.86;;;22.27;33.99
56681;BME280;42558;52.388;13.390;2023-05-12T11:02:01;101334.18;;;22.05;33.48
56681;BME280;42558;52.388;13.390;2023-05-12T11:04:51;101339.08;;;21.72;35.22
56681;BME280;42558;52.388;13.390;2023-05-12T11:07:25;101340.42;;;21.53;34.37
56681;BME280;42558;52.388;13.390;2023-05-12T11:09:59;101337.25;;;21.74;33.71
56681;BME280;42558;52.388;13.390;2023-05-12T11:12:32;101328.90;;;22.01;33.33
56681;BME280;42558;52.388;13.390;2023-05-12T11:15:05;101327.75;;;21.97;32.17
56681;BME280;42558;52.388;13.390;2023-05-12T11:17:39;101327.70;;;21.92;33.76
56681;BME280;42558;52.388;13.390;2023-05-12T11:20:23;101319.43;;;22.16;32.57
56681;BME280;42558;52.388;13.390;2023-05-12T11:22:52;101323.04;;;22.62;33.15
56681;BME280;42558;52.388;13.390;2023-05-12T11:25:26;101319.58;;;22.24;32.30
56681;BME280;42558;52.388;13.390;2023-05-12T11:27:55;101323.57;;;22.15;32.57
56681;BME280;42558;52.388;13.390;2023-05-12T11:30:23;101326.09;;;21.77;32.38
56681;BME280;42558;52.388;13.390;2023-05-12T11:33:02;101323.58;;;21.69;32.68
56681;BME280;42558;52.388;13.390;2023-05-12T11:35:32;101320.39;;;22.34;31.51
56681;BME280;42558;52.388;13.390;2023-05-12T11:38:14;101322.90;;;22.54;31.35
56681;BME280;42558;52.388;13.390;2023-05-12T11:40:42;101321.83;;;22.27;30.61
56681;BME280;42558;52.388;13.390;2023-05-12T11:43:11;101320.71;;;22.07;30.51
56681;BME280;42558;52.388;13.390;2023-05-12T11:45:44;101325.21;;;21.68;31.74
56681;BME280;42558;52.388;13.390;2023-05-12T11:48:14;101332.40;;;21.68;31.27
56681;BME280;42558;52.388;13.390;2023-05-12T11:50:45;101325.41;;;21.90;31.30
56681;BME280;42558;52.388;13.390;2023-05-12T11:53:18;101327.23;;;22.40;31.10
56681;BME280;42558;52.388;13.390;2023-05-12T11:55:55;101324.44;;;22.64;30.80
56681;BME280;42558;52.388;13.390;2023-05-12T11:58:26;101323.02;;;22.23;30.87
56681;BME280;42558;52.388;13.390;2023-05-12T12:01:08;101328.61;;;22.28;31.86
56681;BME280;42558;52.388;13.390;2023-05-12T12:03:51;101329.81;;;22.44;30.36
56681;BME280;42558;52.388;13.390;2023-05-12T12:06:22;101330.17;;;22.64;31.27
56681;BME280;42558;52.388;13.390;2023-05-12T12:08:58;101328.96;;;22.95;30.52
56681;BME280;42558;52.388;13.390;2023-05-12T12:11:27;101335.05;;;22.88;31.12
56681;BME280;42558;52.388;13.390;2023-05-12T12:13:59;101331.21;;;22.09;30.17
56681;BME280;42558;52.388;13.390;2023-05-12T12:16:31;101329.84;;;21.92;31.45
56681;BME280;42558;52.388;13.390;2023-05-12T12:19:00;101326.06;;;22.43;31.60
56681;BME280;42558;52.388;13.390;2023-05-12T12:21:29;101331.65;;;22.62;31.57
56681;BME280;42558;52.388;13.390;2023-05-12T12:23:57;101329.79;;;22.51;30.67
56681;BME280;42558;52.388;13.390;2023-05-12T12:26:26;101327.56;;;22.54;30.68
56681;BME280;42558;52.388;13.390;2023-05-12T12:28:54;101317.95;;;22.45;30.84
56681;BME280;42558;52.388;13.390;2023-05-12T12:31:22;101324.89;;;22.33;30.12
56681;BME280;42558;52.388;13.390;2023-05-12T12:33:51;101327.49;;;22.77;31.30
56681;BME280;42558;52.388;13.390;2023-05-12T12:36:20;101331.23;;;22.78;31.19
56681;BME280;42558;52.388;13.390;2023-05-12T12:38:48;101328.80;;;21.97;31.65
56681;BME280;42558;52.388;13.390;2023-05-12T12:41:16;101331.05;;;21.64;31.51
56681;BME280;42558;52.388;13.390;2023-05-12T12:43:45;101332.36;;;21.84;32.03
56681;BME280;42558;52.388;13.390;2023-05-12T12:46:13;101327.56;;;22.20;30.66
56681;BME280;42558;52.388;13.390;2023-05-12T12:48:42;101327.25;;;22.11;30.30
56681;BME280;42558;52.388;13.390;2023-05-12T12:51:10;101329.08;;;21.93;30.36
56681;BME280;42558;52.388;13.390;2023-05-12T12:53:39;101325.65;;;22.17;30.67
56681;BME280;42558;52.388;13.390;2023-05-12T12:56:11;101327.71;;;21.91;31.54
56681;BME280;42558;52.388;13.390;2023-05-12T12:58:39;101324.23;;;22.64;31.57
56681;BME280;42558;52.388;13.390;2023-05-12T13:01:07;101327.54;;;22.88;31.03
56681;BME280;42558;52.388;13.390;2023-05-12T13:03:36;101319.53;;;22.39;31.23